Time;durP1;ratioP1;P1;durP2;ratioP2;P2;SDS_P1;SDS_P2;PMS_P1;PMS_P2;Temp;Humidity;BMP_temperature;BMP_pressure;BME280_temperature;BME280_humidity;BME280_pressure;Samples;Min_cycle;Max_cycle;Signal;HPM_P1;HPM_P2
2023/08/20 00:01:28;;;;;;;5.45;4.95;;;27.70;70.60;28.30;101203.00;;;;5010825;28;20553;-50
2023/08/20 00:03:54;;;;;;;5.30;4.72;;;27.70;70.70;28.30;101196.00;;;;5010345;28;20207;-49
2023/08/20 00:06:20;;;;;;;4.63;4.22;;;27.70;70.70;28.20;101207.00;;;;5009018;28;20654;-50
2023/08/20 00:08:46;;;;;;;5.28;4.88;;;27.70;70.70;28.20;101210.00;;;;5009993;28;20208;-50
2023/08/20 00:11:12;;;;;;;6.10;5.20;;;27.70;70.80;28.20;101219.00;;;;5008342;28;20172;-49
2023/08/20 00:13:39;;;;;;;6.88;5.00;;;27.70;70.70;28.20;101223.00;;;;5010104;28;20195;-50
2023/08/20 00:16:05;;;;;;;5.80;5.20;;;27.70;70.30;28.20;101222.00;;;;5009984;28;20184;-50
2023/08/20 00:18:31;;;;;;;5.78;5.28;;;27.70;70.40;28.20;101222.00;;;;5009995;28;20199;-49
2023/08/20 00:20:57;;;;;;;5.10;4.57;;;27.60;70.50;28.10;101216.00;;;;5014202;28;20636;-50
2023/08/20 00:23:23;;;;;;;5.75;5.18;;;27.60;70.60;28.10;101221.00;;;;5008545;28;20237;-51
2023/08/20 00:25:49;;;;;;;5.32;4.82;;;27.60;71.50;28.10;101227.00;;;;5009661;28;20179;-50
2023/08/20 00:28:15;;;;;;;5.82;5.00;;;27.60;70.80;28.10;101241.00;;;;5009890;28;20210;-51
2023/08/20 00:30:40;;;;;;;7.30;4.88;;;27.50;70.70;28.10;101233.00;;;;5009421;28;20175;-50
2023/08/20 00:33:06;;;;;;;5.20;4.70;;;27.60;70.80;28.10;101230.00;;;;5008096;28;20678;-50
2023/08/20 00:35:32;;;;;;;5.32;4.80;;;27.60;70.80;28.00;101242.00;;;;5008285;28;20201;-51
2023/08/20 00:37:58;;;;;;;6.28;5.28;;;27.60;70.80;28.00;101234.00;;;;5009553;28;20182;-49
2023/08/20 00:40:24;;;;;;;12.63;4.80;;;27.60;70.70;28.00;101228.00;;;;5009258;28;20262;-48
2023/08/20 00:42:49;;;;;;;5.28;4.57;;;27.50;70.70;27.90;101230.00;;;;5009364;28;20211;-50
2023/08/20 00:45:18;;;;;;;5.15;4.70;;;27.50;70.70;28.00;101232.00;;;;5008583;28;20187;-50
2023/08/20 00:47:44;;;;;;;6.60;4.93;;;27.50;70.70;28.00;101230.00;;;;5009448;28;20214;-51
2023/08/20 00:50:10;;;;;;;5.20;4.50;;;27.50;70.90;28.00;101232.00;;;;5009365;28;20188;-50
2023/08/20 00:52:36;;;;;;;4.95;4.53;;;27.50;71.00;27.90;101231.00;;;;4991939;28;20196;-51
2023/08/20 00:55:09;;;;;;;5.82;5.22;;;27.50;71.00;27.90;101220.00;;;;5008159;28;20191;-50
2023/08/20 00:57:39;;;;;;;5.28;4.88;;;27.50;70.90;27.90;101223.00;;;;4992703;28;20180;-49
2023/08/20 01:00:09;;;;;;;5.47;4.97;;;27.50;71.00;27.90;101218.00;;;;5009554;28;20218;-50
2023/08/20 01:02:35;;;;;;;6.25;4.90;;;27.40;71.00;27.90;101221.00;;;;5009783;28;20219;-50
2023/08/20 01:05:01;;;;;;;7.63;5.00;;;27.40;70.90;27.90;101216.00;;;;5009535;28;20183;-50
2023/08/20 01:07:46;;;;;;;7.22;5.13;;;27.40;70.80;27.90;101221.00;;;;5009301;28;20562;-50
2023/08/20 01:10:31;;;;;;;5.40;4.90;;;27.40;70.80;27.90;101214.00;;;;5007925;28;20225;-50
2023/08/20 01:12:57;;;;;;;5.30;4.80;;;27.40;70.80;27.80;101203.00;;;;4993467;28;20199;-50
2023/08/20 01:15:24;;;;;;;5.72;4.75;;;27.40;70.80;27.80;101152.00;;;;4991834;28;20553;-50
2023/08/20 01:17:50;;;;;;;5.57;4.88;;;27.30;70.80;27.80;101202.00;;;;5012770;28;20199;-51
2023/08/20 01:20:16;;;;;;;5.43;4.93;;;27.30;71.00;27.80;101200.00;;;;5010340;28;20179;-50
2023/08/20 01:23:17;;;;;;;8.43;4.68;;;27.30;71.00;27.80;101187.00;;;;5012646;28;20744;-50
2023/08/20 01:26:26;;;;;;;5.28;4.80;;;27.30;71.00;27.80;101202.00;;;;5009091;28;20260;-50
2023/08/20 01:28:52;;;;;;;5.22;4.72;;;27.30;70.80;27.70;101201.00;;;;4983220;28;20565;-50
2023/08/20 01:31:18;;;;;;;5.70;5.20;;;27.30;70.60;27.70;101210.00;;;;4991566;28;20206;-50
2023/08/20 01:33:43;;;;;;;5.95;5.18;;;27.30;70.60;27.70;101208.00;;;;4999232;28;20663;-50
2023/08/20 01:36:09;;;;;;;5.63;4.95;;;27.30;70.70;27.70;101208.00;;;;4994156;28;20183;-50
2023/08/20 01:38:36;;;;;;;5.13;4.72;;;27.20;70.70;27.70;101199.00;;;;5009116;28;20518;-49
2023/08/20 01:41:02;;;;;;;4.88;4.40;;;27.10;70.80;27.60;101197.00;;;;5008771;28;20218;-50
2023/08/20 01:43:28;;;;;;;6.03;5.15;;;27.20;70.90;27.60;101204.00;;;;5007595;28;20192;-50
2023/08/20 01:45:54;;;;;;;5.20;4.72;;;27.10;70.70;27.60;101201.00;;;;5008772;28;20572;-51
2023/08/20 01:48:20;;;;;;;5.53;5.00;;;27.20;70.80;27.60;101207.00;;;;5008974;28;20262;-51
2023/08/20 01:50:45;;;;;;;5.38;4.97;;;27.20;70.70;27.60;101212.00;;;;5008791;28;20681;-50
2023/08/20 01:53:11;;;;;;;5.53;5.03;;;27.20;70.50;27.60;101226.00;;;;5008697;28;20230;-51
2023/08/20 01:55:37;;;;;;;5.03;4.53;;;27.20;70.40;27.60;101221.00;;;;5008826;28;20237;-51
2023/08/20 01:58:03;;;;;;;6.18;4.95;;;27.10;70.40;27.60;101169.00;;;;5008649;28;20187;-51
2023/08/20 02:00:30;;;;;;;5.20;4.70;;;27.10;70.60;27.60;101229.00;;;;5008492;28;20187;-51
2023/08/20 02:02:56;;;;;;;5.10;4.70;;;27.10;70.80;27.50;101233.00;;;;5008700;28;20658;-50
2023/08/20 02:05:22;;;;;;;4.80;4.40;;;27.10;70.90;27.50;101229.00;;;;5007889;28;20202;-49
2023/08/20 02:07:48;;;;;;;6.03;5.05;;;27.00;70.70;27.50;101227.00;;;;5008521;28;20254;-50
2023/08/20 02:10:13;;;;;;;5.05;4.65;;;27.00;70.70;27.50;101240.00;;;;5012525;28;20241;-51
2023/08/20 02:12:40;;;;;;;4.80;4.30;;;27.10;70.70;27.50;101227.00;;;;5012779;28;20210;-50
2023/08/20 02:15:07;;;;;;;5.15;4.70;;;27.00;70.70;27.50;101235.00;;;;5012644;28;20185;-49
2023/08/20 02:17:33;;;;;;;5.18;4.70;;;27.10;70.60;27.50;101232.00;;;;5012813;28;20206;-50
2023/08/20 02:19:58;;;;;;;5.25;4.85;;;27.10;70.40;27.50;101240.00;;;;5012009;28;20171;-50
2023/08/20 02:22:24;;;;;;;5.28;4.80;;;27.00;70.40;27.50;101234.00;;;;5012205;28;20218;-49
2023/08/20 02:24:50;;;;;;;5.70;5.13;;;27.00;70.40;27.50;101240.00;;;;5012207;28;20284;-50
2023/08/20 02:27:16;;;;;;;5.60;4.93;;;27.00;70.60;27.50;101245.00;;;;5012008;28;20199;-51
2023/08/20 02:29:41;;;;;;;5.45;4.72;;;27.00;70.60;27.40;101248.00;;;;5012141;28;20202;-49
2023/08/20 02:32:07;;;;;;;5.47;4.68;;;27.00;70.50;27.40;101246.00;;;;5012096;28;20207;-49
2023/08/20 02:34:33;;;;;;;5.63;4.63;;;26.90;70.60;27.40;101237.00;;;;5012144;28;20176;-49
2023/08/20 02:36:59;;;;;;;5.55;4.95;;;26.90;70.80;27.40;101238.00;;;;5011933;28;20184;-51
2023/08/20 02:39:25;;;;;;;5.45;4.93;;;26.90;70.80;27.40;101246.00;;;;5017272;28;20183;-54
2023/08/20 02:41:50;;;;;;;4.97;4.53;;;26.90;70.80;27.40;101256.00;;;;5017290;28;20521;-51
2023/08/20 02:44:16;;;;;;;5.15;4.72;;;26.90;70.80;27.40;101265.00;;;;5018591;28;20194;-50
2023/08/20 02:46:44;;;;;;;5.18;4.78;;;26.90;70.50;27.40;101278.00;;;;5012994;28;20286;-49
2023/08/20 02:49:10;;;;;;;5.30;4.78;;;27.00;70.50;27.40;101272.00;;;;5012292;28;20208;-50
2023/08/20 02:51:36;;;;;;;5.03;4.63;;;26.90;70.60;27.30;101259.00;;;;5007340;28;20503;-50
2023/08/20 02:54:02;;;;;;;5.22;4.72;;;26.90;70.80;27.30;101277.00;;;;5011749;28;20204;-49
2023/08/20 02:56:27;;;;;;;7.30;4.82;;;26.90;70.80;27.30;101276.00;;;;5011966;28;20187;-49
2023/08/20 02:58:53;;;;;;;6.03;4.90;;;26.90;70.80;27.30;101268.00;;;;5010578;28;20503;-50
2023/08/20 03:01:23;;;;;;;5.20;4.80;;;26.90;70.80;27.30;101268.00;;;;5012090;28;20191;-50
2023/08/20 03:03:49;;;;;;;5.18;4.70;;;26.90;70.80;27.30;101273.00;;;;5012743;28;20214;-49
2023/08/20 03:06:15;;;;;;;5.25;4.75;;;26.90;70.70;27.30;101268.00;;;;5012506;28;20187;-50
2023/08/20 03:08:40;;;;;;;5.10;4.68;;;26.90;70.80;27.30;101260.00;;;;5012711;28;20203;-49
2023/08/20 03:11:06;;;;;;;5.32;4.78;;;26.80;70.70;27.20;101263.00;;;;5012336;28;20255;-51
2023/08/20 03:13:32;;;;;;;5.57;5.07;;;26.80;70.80;27.20;101266.00;;;;5012553;28;20660;-51
2023/08/20 03:15:57;;;;;;;5.40;4.90;;;26.80;70.70;27.20;101258.00;;;;5012453;28;20172;-51
2023/08/20 03:18:23;;;;;;;5.60;4.95;;;26.80;70.80;27.20;101263.00;;;;5012501;28;20258;-51
2023/08/20 03:20:49;;;;;;;6.25;4.75;;;26.80;70.90;27.20;101260.00;;;;5014364;28;20696;-50
2023/08/20 03:23:15;;;;;;;5.00;4.60;;;26.80;70.90;27.20;101257.00;;;;5013129;28;20239;-49
2023/08/20 03:25:40;;;;;;;4.88;4.47;;;26.70;70.90;27.20;101264.00;;;;5012199;28;20270;-48
2023/08/20 03:28:06;;;;;;;5.25;4.72;;;26.80;71.00;27.20;101282.00;;;;5014398;28;20686;-51
2023/08/20 03:30:33;;;;;;;6.47;4.95;;;26.70;71.30;27.20;101274.00;;;;5014918;28;20180;-50
2023/08/20 03:32:59;;;;;;;5.00;4.60;;;26.70;71.10;27.10;101277.00;;;;5012105;28;20206;-51
2023/08/20 03:35:25;;;;;;;5.28;4.78;;;26.70;71.20;27.10;101270.00;;;;5007696;28;20180;-51
2023/08/20 03:37:50;;;;;;;5.68;5.07;;;26.70;71.20;27.10;101272.00;;;;5008659;28;20184;-51
2023/08/20 03:40:18;;;;;;;5.57;4.75;;;26.70;71.20;27.10;101261.00;;;;5011098;28;20659;-50
2023/08/20 03:42:44;;;;;;;5.07;4.60;;;26.70;71.20;27.10;101270.00;;;;5013906;28;20216;-51
2023/08/20 03:45:09;;;;;;;6.07;4.70;;;26.70;71.90;27.10;101276.00;;;;5015665;28;20175;-50
2023/08/20 03:47:36;;;;;;;5.97;4.68;;;26.70;71.20;27.10;101279.00;;;;5011838;28;20261;-50
2023/08/20 03:50:03;;;;;;;4.97;4.57;;;26.70;71.10;27.10;101278.00;;;;5011174;28;20171;-50
2023/08/20 03:52:29;;;;;;;5.45;5.00;;;26.70;71.20;27.00;101281.00;;;;5011849;28;20203;-50
2023/08/20 03:54:54;;;;;;;5.32;4.93;;;26.70;71.20;27.00;101284.00;;;;5011600;28;20175;-50
2023/08/20 03:57:20;;;;;;;5.57;4.88;;;26.60;71.10;27.00;101292.00;;;;5011662;28;20180;-51
2023/08/20 03:59:47;;;;;;;4.93;4.50;;;26.60;71.20;27.00;101298.00;;;;5010180;28;20183;-50
2023/08/20 04:02:13;;;;;;;5.05;4.65;;;26.60;71.30;27.00;101308.00;;;;5010282;28;20357;-50
2023/08/20 04:04:39;;;;;;;5.13;4.72;;;26.60;71.40;27.00;101294.00;;;;5010778;28;20167;-50
2023/08/20 04:07:05;;;;;;;5.85;4.60;;;26.60;71.40;26.90;101296.00;;;;5011052;28;20183;-50
2023/08/20 04:09:32;;;;;;;5.50;4.72;;;26.50;71.60;26.90;101290.00;;;;5009792;28;20207;-50
2023/08/20 04:11:58;;;;;;;5.10;4.60;;;26.50;71.80;26.90;101295.00;;;;5009195;28;20178;-50
2023/08/20 04:14:24;;;;;;;6.57;4.78;;;26.50;72.00;26.90;101304.00;;;;5010928;28;20554;-50
2023/08/20 04:16:49;;;;;;;6.03;4.80;;;26.40;71.90;26.90;101313.00;;;;5011002;28;20195;-49
2023/08/20 04:19:15;;;;;;;5.53;5.00;;;26.40;72.10;26.90;101305.00;;;;5010338;28;20283;-50
2023/08/20 04:21:41;;;;;;;5.97;5.00;;;26.50;72.00;26.90;101307.00;;;;5010921;28;20179;-50
2023/08/20 04:24:06;;;;;;;5.78;5.20;;;26.50;72.10;26.90;101281.00;;;;5010314;28;20204;-50
2023/08/20 04:26:32;;;;;;;5.63;5.13;;;26.50;72.00;26.80;101303.00;;;;5010726;28;20187;-50
2023/08/20 04:28:58;;;;;;;5.20;4.80;;;26.50;71.80;26.80;101301.00;;;;5010555;28;20578;-50
2023/08/20 04:31:24;;;;;;;5.65;5.00;;;26.50;71.80;26.80;101305.00;;;;5008914;28;20180;-50
2023/08/20 04:33:50;;;;;;;5.68;5.10;;;26.50;71.90;26.80;101294.00;;;;5009656;28;20203;-56
2023/08/20 04:36:16;;;;;;;5.30;4.80;;;26.40;71.80;26.80;101298.00;;;;5010480;28;20182;-50
2023/08/20 04:38:41;;;;;;;5.18;4.70;;;26.40;72.10;26.80;101303.00;;;;5010265;28;20183;-50
2023/08/20 04:41:07;;;;;;;5.97;5.00;;;26.40;72.20;26.80;101300.00;;;;5009942;28;20203;-50
2023/08/20 04:43:33;;;;;;;5.40;4.53;;;26.30;72.10;26.80;101310.00;;;;5009874;28;20202;-50
2023/08/20 04:45:59;;;;;;;5.20;4.80;;;26.30;72.40;26.80;101317.00;;;;5010920;28;20176;-50
2023/08/20 04:48:24;;;;;;;5.10;4.70;;;26.30;72.50;26.70;101321.00;;;;5008971;28;20199;-50
2023/08/20 04:50:50;;;;;;;6.28;5.50;;;26.40;72.50;26.70;101319.00;;;;5010235;28;20211;-50
2023/08/20 04:53:16;;;;;;;5.57;5.10;;;26.30;72.40;26.70;101325.00;;;;5009974;28;20863;-50
2023/08/20 04:55:41;;;;;;;5.72;5.22;;;26.30;72.50;26.70;101323.00;;;;5010218;28;20186;-50
2023/08/20 04:58:07;;;;;;;5.50;5.00;;;26.30;72.50;26.70;101324.00;;;;5010232;28;20572;-50
2023/08/20 05:00:33;;;;;;;5.75;5.22;;;26.30;72.70;26.70;101309.00;;;;5009751;28;20187;-50
2023/08/20 05:02:59;;;;;;;6.03;5.47;;;26.30;72.70;26.70;101320.00;;;;5009537;28;20242;-49
2023/08/20 05:05:24;;;;;;;5.97;5.40;;;26.30;73.00;26.70;101328.00;;;;5010055;28;20691;-49
2023/08/20 05:07:50;;;;;;;6.25;5.38;;;26.30;73.00;26.70;101331.00;;;;5009712;28;20203;-50
2023/08/20 05:10:16;;;;;;;6.10;5.50;;;26.30;72.70;26.60;101324.00;;;;5009635;28;20176;-50
2023/08/20 05:12:41;;;;;;;5.80;5.30;;;26.30;72.70;26.70;101317.00;;;;5009268;28;20709;-51
2023/08/20 05:15:07;;;;;;;6.38;5.78;;;26.30;72.70;26.60;101322.00;;;;5009692;28;20186;-50
2023/08/20 05:17:33;;;;;;;6.35;5.80;;;26.30;72.90;26.60;101321.00;;;;5008632;28;20686;-50
2023/08/20 05:19:59;;;;;;;6.35;5.18;;;26.30;73.00;26.60;101321.00;;;;5008376;28;20706;-51
2023/08/20 05:22:24;;;;;;;7.90;5.43;;;26.30;73.00;26.60;101316.00;;;;5009764;28;20207;-50
2023/08/20 05:24:50;;;;;;;5.95;5.35;;;26.30;73.00;26.60;101321.00;;;;5009633;28;20187;-49
2023/08/20 05:27:19;;;;;;;5.47;4.97;;;26.30;73.00;26.60;101328.00;;;;5009891;28;20241;-50
2023/08/20 05:29:45;;;;;;;5.30;4.90;;;26.30;72.90;26.60;101337.00;;;;5009157;28;20179;-49
2023/08/20 05:32:11;;;;;;;5.78;5.20;;;26.30;72.90;26.60;101326.00;;;;5011109;28;20192;-49
2023/08/20 05:34:36;;;;;;;5.43;5.00;;;26.30;72.90;26.60;101329.00;;;;5017963;28;20530;-49
2023/08/20 05:37:03;;;;;;;6.10;5.53;;;26.20;72.70;26.60;101332.00;;;;5009924;28;20198;-54
2023/08/20 05:39:30;;;;;;;5.30;4.85;;;26.20;72.80;26.50;101326.00;;;;5009494;28;20182;-50
2023/08/20 05:41:56;;;;;;;5.95;5.40;;;26.20;73.70;26.30;101336.00;;;;5009223;28;20182;-49
2023/08/20 05:44:21;;;;;;;5.93;5.22;;;26.20;72.90;26.50;101347.00;;;;5009317;28;20258;-50
2023/08/20 05:46:47;;;;;;;6.10;5.45;;;26.20;72.90;26.50;101340.00;;;;5010275;28;20180;-51
2023/08/20 05:49:15;;;;;;;6.72;5.28;;;26.20;72.90;26.50;101338.00;;;;5016776;28;20207;-51
2023/08/20 05:51:44;;;;;;;5.32;4.82;;;26.20;72.90;26.50;101337.00;;;;5009538;28;20267;-50
2023/08/20 05:54:10;;;;;;;6.15;5.22;;;26.20;72.90;26.50;101349.00;;;;5009055;28;20199;-49
2023/08/20 05:56:37;;;;;;;5.82;5.25;;;26.20;72.90;26.50;101347.00;;;;5009252;28;20533;-49
2023/08/20 05:59:02;;;;;;;5.70;5.20;;;26.20;73.80;26.50;101339.00;;;;5009114;28;20198;-50
2023/08/20 06:01:28;;;;;;;5.20;4.80;;;26.10;72.90;26.50;101341.00;;;;5009816;28;20179;-51
2023/08/20 06:03:54;;;;;;;5.63;5.13;;;26.10;72.90;26.50;101334.00;;;;5019219;28;20985;-51
2023/08/20 06:06:20;;;;;;;5.40;4.90;;;26.10;72.90;26.50;101344.00;;;;5020520;28;20230;-50
2023/08/20 06:08:46;;;;;;;5.70;5.20;;;26.10;72.90;26.50;101344.00;;;;5015579;28;20630;-51
2023/08/20 06:11:12;;;;;;;8.65;5.50;;;26.10;73.10;26.50;101342.00;;;;5009835;28;20254;-51
2023/08/20 06:13:37;;;;;;;6.05;5.55;;;26.10;73.20;26.50;101338.00;;;;5008885;28;20199;-51
2023/08/20 06:16:03;;;;;;;6.00;5.45;;;26.10;73.10;26.50;101338.00;;;;5009220;28;20179;-51
2023/08/20 06:18:29;;;;;;;6.40;5.57;;;26.10;73.20;26.50;101335.00;;;;5009268;28;20620;-51
2023/08/20 06:20:54;;;;;;;6.00;5.40;;;26.10;73.40;26.50;101341.00;;;;5009151;28;20214;-49
2023/08/20 06:23:20;;;;;;;5.53;5.10;;;26.10;73.70;26.40;101350.00;;;;5008846;28;20231;-51
2023/08/20 06:25:46;;;;;;;6.10;5.60;;;26.10;73.80;26.40;101350.00;;;;5009025;28;20283;-50
2023/08/20 06:28:12;;;;;;;7.03;5.22;;;26.00;74.00;26.40;101347.00;;;;5008847;28;20249;-50
2023/08/20 06:30:37;;;;;;;6.18;5.57;;;26.00;73.90;26.40;101349.00;;;;5008474;28;20171;-51
2023/08/20 06:33:03;;;;;;;6.07;5.47;;;26.00;74.20;26.40;101341.00;;;;5008352;28;20203;-50
2023/08/20 06:35:29;;;;;;;6.10;5.50;;;26.00;74.00;26.40;101348.00;;;;5008668;28;20214;-50
2023/08/20 06:37:55;;;;;;;6.25;5.65;;;26.00;74.20;26.40;101347.00;;;;5008910;28;20201;-50
2023/08/20 06:40:20;;;;;;;6.70;6.10;;;26.00;74.40;26.40;101344.00;;;;5008436;28;20230;-49
2023/08/20 06:42:46;;;;;;;6.20;5.60;;;26.00;74.50;26.40;101348.00;;;;5008358;28;20583;-49
2023/08/20 06:45:12;;;;;;;6.07;5.57;;;26.00;74.20;26.40;101347.00;;;;5008621;28;20187;-50
2023/08/20 06:47:38;;;;;;;5.75;5.35;;;25.90;74.10;26.40;101344.00;;;;5008556;28;20227;-50
2023/08/20 06:50:06;;;;;;;5.60;5.10;;;25.90;74.10;26.40;101346.00;;;;5008218;28;20187;-49
2023/08/20 06:52:31;;;;;;;5.88;5.40;;;25.90;74.20;26.40;101345.00;;;;5008257;28;20284;-50
2023/08/20 06:54:57;;;;;;;6.05;5.55;;;25.90;75.00;26.30;101341.00;;;;5010394;28;20263;-49
2023/08/20 06:57:23;;;;;;;5.75;5.25;;;25.90;74.20;26.30;101350.00;;;;5012337;28;20244;-49
2023/08/20 06:59:48;;;;;;;6.75;6.20;;;25.90;74.40;26.30;101362.00;;;;5012218;28;20188;-50
2023/08/20 07:02:14;;;;;;;6.80;6.20;;;26.00;74.80;26.30;101352.00;;;;5011757;28;20192;-50
2023/08/20 07:04:40;;;;;;;6.05;5.45;;;26.00;75.00;26.30;101345.00;;;;5010377;28;20175;-49
2023/08/20 07:07:06;;;;;;;5.63;5.13;;;25.90;75.20;26.30;101351.00;;;;5011946;28;20199;-49
2023/08/20 07:09:31;;;;;;;5.60;5.20;;;25.90;74.90;26.30;101347.00;;;;5011795;28;20207;-49
2023/08/20 07:11:57;;;;;;;6.45;5.22;;;25.90;74.90;26.30;101349.00;;;;5011577;28;20625;-49
2023/08/20 07:14:23;;;;;;;6.20;5.70;;;25.90;75.00;26.30;101356.00;;;;5011702;28;20713;-49
2023/08/20 07:16:48;;;;;;;5.80;5.35;;;25.90;75.20;26.30;101362.00;;;;5011399;28;20191;-50
2023/08/20 07:19:14;;;;;;;6.70;6.10;;;25.90;75.20;26.30;101365.00;;;;5011960;28;20219;-49
2023/08/20 07:21:40;;;;;;;6.90;6.30;;;25.90;75.40;26.30;101367.00;;;;5012413;28;20184;-49
2023/08/20 07:24:06;;;;;;;6.88;6.28;;;25.90;76.10;26.30;101362.00;;;;5011470;28;20200;-50
2023/08/20 07:26:32;;;;;;;7.25;6.40;;;25.90;76.40;26.30;101360.00;;;;5011874;28;20206;-49
2023/08/20 07:28:58;;;;;;;6.95;6.35;;;25.90;76.40;26.30;101357.00;;;;5011641;28;20588;-49
2023/08/20 07:31:31;;;;;;;6.47;5.97;;;25.90;76.40;26.30;101365.00;;;;5011753;28;20179;-50
2023/08/20 07:33:58;;;;;;;7.38;6.35;;;25.90;76.40;26.20;101358.00;;;;5006279;28;20191;-49
2023/08/20 07:36:24;;;;;;;6.07;5.50;;;25.80;76.30;26.30;101355.00;;;;5009809;28;20179;-49
2023/08/20 07:38:51;;;;;;;5.90;5.50;;;25.80;76.50;26.20;101350.00;;;;5024396;28;20188;-51
2023/08/20 07:41:17;;;;;;;5.82;5.22;;;25.80;76.40;26.20;101358.00;;;;5012459;28;20184;-50
2023/08/20 07:43:43;;;;;;;6.78;6.25;;;25.80;76.40;26.30;101351.00;;;;5009645;28;20214;-50
2023/08/20 07:46:09;;;;;;;6.53;6.03;;;25.80;76.50;26.20;101350.00;;;;5008986;28;20176;-50
2023/08/20 07:48:35;;;;;;;6.68;6.05;;;25.80;76.50;26.20;101343.00;;;;5008749;28;20678;-51
2023/08/20 07:51:04;;;;;;;7.55;6.75;;;25.80;76.80;26.20;101355.00;;;;5010765;28;20179;-50
2023/08/20 07:53:30;;;;;;;7.25;6.60;;;25.80;77.40;26.20;101352.00;;;;5018700;28;20199;-51
2023/08/20 07:55:56;;;;;;;7.80;7.10;;;25.80;77.90;26.20;101368.00;;;;5016798;28;20236;-51
2023/08/20 07:58:22;;;;;;;7.22;6.63;;;25.80;77.80;26.20;101364.00;;;;5011212;28;20595;-50
2023/08/20 08:00:47;;;;;;;8.02;7.32;;;25.80;78.00;26.20;101366.00;;;;5010705;28;20650;-50
2023/08/20 08:03:17;;;;;;;7.75;7.15;;;25.80;78.10;26.20;101370.00;;;;5011029;28;20228;-51
2023/08/20 08:05:49;;;;;;;8.77;7.97;;;25.80;78.00;26.20;101369.00;;;;5008641;28;20669;-50
2023/08/20 08:08:18;;;;;;;8.52;7.78;;;25.80;78.00;26.20;101369.00;;;;5011014;28;20207;-50
2023/08/20 08:10:45;;;;;;;8.02;7.28;;;25.80;78.20;26.20;101375.00;;;;5011112;28;20199;-51
2023/08/20 08:13:20;;;;;;;7.22;6.63;;;25.80;78.00;26.20;101375.00;;;;5011392;28;20215;-50
2023/08/20 08:15:46;;;;;;;7.22;6.53;;;25.70;77.90;26.20;101380.00;;;;5011192;28;20552;-50
2023/08/20 08:18:11;;;;;;;7.10;6.50;;;25.70;77.90;26.20;101380.00;;;;5009972;28;20192;-51
2023/08/20 08:20:37;;;;;;;7.60;6.93;;;25.70;77.90;26.20;101382.00;;;;5011682;28;20850;-51
2023/08/20 08:23:03;;;;;;;8.05;7.30;;;25.70;78.10;26.20;101378.00;;;;5011174;28;20207;-50
2023/08/20 08:25:29;;;;;;;7.25;6.55;;;25.70;77.90;26.20;101375.00;;;;5011470;28;20666;-50
2023/08/20 08:27:55;;;;;;;6.88;6.38;;;25.70;77.90;26.20;101382.00;;;;5005340;28;20644;-49
2023/08/20 08:30:22;;;;;;;6.53;6.03;;;25.60;78.20;26.20;101385.00;;;;5010290;28;20238;-51
2023/08/20 08:32:47;;;;;;;6.70;6.20;;;25.60;78.30;26.20;101372.00;;;;5010284;28;20223;-52
2023/08/20 08:35:13;;;;;;;6.82;6.22;;;25.70;78.60;26.30;101377.00;;;;5010638;28;20179;-52
2023/08/20 08:37:39;;;;;;;7.00;6.30;;;25.70;78.40;26.30;101381.00;;;;5010660;28;20180;-52
2023/08/20 08:40:05;;;;;;;6.05;5.57;;;25.80;78.60;26.30;101380.00;;;;5010211;28;20781;-52
2023/08/20 08:42:32;;;;;;;6.68;6.05;;;25.80;78.20;26.40;101366.00;;;;5007940;28;20269;-52
2023/08/20 08:44:59;;;;;;;6.18;5.70;;;25.90;78.40;26.40;101373.00;;;;5006895;28;20266;-52
2023/08/20 08:47:25;;;;;;;6.05;5.50;;;25.90;78.60;26.50;101367.00;;;;5010138;28;20544;-52
2023/08/20 08:49:51;;;;;;;8.43;5.70;;;25.90;78.40;26.50;101293.00;;;;5005341;28;20164;-52
2023/08/20 08:52:17;;;;;;;5.85;5.30;;;25.90;78.30;26.50;101371.00;;;;4991991;28;20196;-52
2023/08/20 08:54:44;;;;;;;5.72;5.22;;;26.00;78.40;26.60;101361.00;;;;5009995;28;20179;-52
2023/08/20 08:57:10;;;;;;;6.10;5.60;;;26.00;78.80;26.60;101371.00;;;;5009036;28;20258;-52
2023/08/20 08:59:36;;;;;;;5.97;5.43;;;26.00;78.80;26.60;101357.00;;;;4992915;28;20586;-52
2023/08/20 09:02:02;;;;;;;5.53;5.07;;;26.00;79.00;26.60;101365.00;;;;5009510;28;20705;-52
2023/08/20 09:04:27;;;;;;;7.72;5.55;;;26.00;79.10;26.70;101368.00;;;;4991238;28;20638;-52
2023/08/20 09:06:55;;;;;;;6.03;5.43;;;26.00;79.10;26.70;101365.00;;;;5010345;28;20351;-51
2023/08/20 09:09:21;;;;;;;5.63;5.07;;;26.00;79.20;26.70;101365.00;;;;5010255;28;20203;-53
2023/08/20 09:11:47;;;;;;;6.00;5.40;;;26.00;79.20;26.70;101361.00;;;;5010097;28;20176;-51
2023/08/20 09:14:32;;;;;;;6.00;5.50;;;26.10;79.40;26.80;101359.00;;;;5010139;28;20172;-51
2023/08/20 09:17:00;;;;;;;5.72;5.25;;;26.10;79.30;26.80;101364.00;;;;5008613;28;20176;-52
2023/08/20 09:19:35;;;;;;;6.43;5.40;;;26.10;79.40;26.80;101366.00;;;;5010244;28;20197;-52
2023/08/20 09:22:01;;;;;;;5.85;5.30;;;26.10;79.40;26.70;101372.00;;;;5010704;28;20182;-52
2023/08/20 09:24:34;;;;;;;5.60;5.10;;;26.10;79.50;26.80;101370.00;;;;5008553;28;20179;-52
2023/08/20 09:27:03;;;;;;;5.50;5.00;;;26.10;79.50;26.80;101375.00;;;;5009733;28;20732;-53
2023/08/20 09:29:32;;;;;;;5.85;5.35;;;26.20;79.60;26.80;101369.00;;;;5009510;28;20708;-52
2023/08/20 09:32:02;;;;;;;6.07;5.45;;;26.20;79.70;26.80;101372.00;;;;5008423;28;20255;-52
2023/08/20 09:34:37;;;;;;;5.20;4.80;;;26.20;79.80;26.90;101374.00;;;;5010197;28;20175;-52
2023/08/20 09:37:03;;;;;;;5.38;4.97;;;26.20;80.00;26.90;101370.00;;;;5010057;28;20179;-52
2023/08/20 09:39:29;;;;;;;5.53;5.13;;;26.20;80.00;26.90;101374.00;;;;5009655;28;20183;-53
2023/08/20 09:41:55;;;;;;;5.32;4.93;;;26.20;80.20;26.90;101377.00;;;;5009369;28;20186;-52
2023/08/20 09:44:20;;;;;;;5.30;4.90;;;26.20;80.50;26.90;101380.00;;;;5008805;28;20184;-54
2023/08/20 09:46:46;;;;;;;5.40;4.90;;;26.20;80.40;27.00;101378.00;;;;5012236;28;20186;-53
2023/08/20 09:49:12;;;;;;;5.20;4.80;;;26.20;80.70;27.00;101375.00;;;;5013127;28;20212;-52
2023/08/20 09:51:38;;;;;;;5.13;4.72;;;26.20;80.70;27.00;101376.00;;;;5008113;28;20175;-53
2023/08/20 09:54:48;;;;;;;4.97;4.57;;;26.30;80.80;27.00;101385.00;;;;5008345;28;20220;-53
2023/08/20 09:57:43;;;;;;;4.90;4.50;;;26.30;81.10;27.00;101374.00;;;;5007736;28;20198;-53
2023/08/20 10:00:10;;;;;;;4.90;4.50;;;26.30;81.10;27.00;101376.00;;;;5009140;28;20184;-50
2023/08/20 10:02:37;;;;;;;4.72;4.43;;;26.30;81.10;27.00;101384.00;;;;5013284;28;20718;-51
2023/08/20 10:05:07;;;;;;;4.53;4.22;;;26.30;81.00;27.00;101379.00;;;;5015827;28;20183;-51
2023/08/20 10:07:33;;;;;;;5.10;4.70;;;26.30;81.10;27.10;101386.00;;;;5009820;28;20175;-52
2023/08/20 10:10:06;;;;;;;4.63;4.22;;;26.30;81.10;27.10;101389.00;;;;5008412;28;20180;-52
2023/08/20 10:12:32;;;;;;;4.65;4.25;;;26.30;81.20;27.10;101390.00;;;;5009411;28;20195;-52
2023/08/20 10:15:01;;;;;;;4.57;4.28;;;26.40;81.30;27.10;101383.00;;;;5008113;28;20194;-52
2023/08/20 10:17:29;;;;;;;4.10;3.80;;;26.40;81.30;27.10;101390.00;;;;5009490;28;20250;-51
2023/08/20 10:19:57;;;;;;;4.72;4.43;;;26.40;81.40;27.20;101385.00;;;;5009551;28;20230;-52
2023/08/20 10:22:22;;;;;;;4.40;4.10;;;26.40;81.60;27.20;101387.00;;;;5008643;28;20200;-51
2023/08/20 10:24:51;;;;;;;4.40;4.00;;;26.40;81.60;27.20;101385.00;;;;5008041;28;20179;-53
2023/08/20 10:27:33;;;;;;;4.40;4.10;;;26.40;81.70;27.20;101396.00;;;;5009399;28;20176;-53
2023/08/20 10:29:59;;;;;;;4.13;3.83;;;26.50;81.80;27.20;101403.00;;;;5011264;28;20238;-51
2023/08/20 10:32:51;;;;;;;4.80;4.40;;;26.50;81.70;27.30;101388.00;;;;5012021;28;20207;-52
2023/08/20 10:35:27;;;;;;;4.70;4.40;;;26.50;81.80;27.20;101384.00;;;;5013251;28;20176;-52
2023/08/20 10:38:13;;;;;;;4.43;4.13;;;26.50;81.80;27.10;101385.00;;;;5011794;28;20185;-52
2023/08/20 10:40:58;;;;;;;4.60;4.30;;;26.50;81.70;27.30;101389.00;;;;5012741;28;20225;-51
2023/08/20 10:43:30;;;;;;;4.40;4.10;;;26.60;81.70;27.30;101390.00;;;;5013087;28;20223;-51
2023/08/20 10:46:22;;;;;;;4.35;4.05;;;26.60;81.90;27.30;101383.00;;;;5012785;28;20179;-52
2023/08/20 10:48:53;;;;;;;4.25;3.95;;;26.60;82.20;27.30;101387.00;;;;5012705;28;20686;-51